createdAt,value
2019-03-22T00:00:39.766Z,62.95
2019-03-22T00:03:08.319Z,63.18
2019-03-22T00:05:36.945Z,64.05
2019-03-22T00:08:05.542Z,64.11
2019-03-22T00:10:34.099Z,64.52
2019-03-22T00:13:02.820Z,64.23
2019-03-22T00:15:31.435Z,63.91
2019-03-22T00:18:00.060Z,63.99
2019-03-22T00:20:28.648Z,63.92
2019-03-22T00:22:57.262Z,63.88
2019-03-22T00:25:25.880Z,63.71
2019-03-22T00:27:54.569Z,63.72
2019-03-22T00:30:23.103Z,63.54
2019-03-22T00:32:53.952Z,63.17
2019-03-22T00:35:21.999Z,64.20
2019-03-22T00:37:50.516Z,64.55
2019-03-22T00:40:19.005Z,64.55
2019-03-22T00:42:47.582Z,64.83
2019-03-22T00:45:16.158Z,65.04
2019-03-22T00:47:44.769Z,64.99
2019-03-22T00:50:13.889Z,65.87
2019-03-22T00:52:42.528Z,66.00
2019-03-22T00:55:11.112Z,66.34
2019-03-22T00:57:39.738Z,65.85
2019-03-22T01:00:14.607Z,65.87
2019-03-22T01:02:43.198Z,66.87
2019-03-22T01:05:12.994Z,66.75
2019-03-22T01:07:41.580Z,66.40
2019-03-22T01:10:12.502Z,65.86
2019-03-22T01:12:41.326Z,65.11
2019-03-22T01:15:12.220Z,65.44
2019-03-22T01:17:40.937Z,65.58
2019-03-22T01:20:11.479Z,64.93
2019-03-22T01:22:40.060Z,65.89
2019-03-22T01:25:10.081Z,66.87
2019-03-22T01:27:40.796Z,67.05
2019-03-22T01:30:16.190Z,67.43
2019-03-22T01:32:44.749Z,67.76
2019-03-22T01:35:13.830Z,67.45
2019-03-22T01:37:42.460Z,66.69
2019-03-22T01:40:12.151Z,70.69
2019-03-22T01:42:40.806Z,67.61
2019-03-22T01:45:12.018Z,66.19
2019-03-22T01:47:40.747Z,66.11
2019-03-22T01:50:16.926Z,66.19
2019-03-22T01:52:45.472Z,66.17
2019-03-22T01:55:14.106Z,67.16
2019-03-22T01:57:52.362Z,67.50
2019-03-22T02:00:14.978Z,68.04
2019-03-22T02:02:43.686Z,68.10
2019-03-22T02:05:12.579Z,67.75
2019-03-22T02:07:40.987Z,67.60
2019-03-22T02:10:11.413Z,67.10
2019-03-22T02:12:40.033Z,66.86
2019-03-22T02:15:14.239Z,70.14
2019-03-22T02:17:43.156Z,67.17
2019-03-22T02:20:14.407Z,66.53
2019-03-22T02:22:43.065Z,66.69
2019-03-22T02:25:11.744Z,66.46
2019-03-22T02:27:40.377Z,67.00
2019-03-22T02:30:11.550Z,67.66
2019-03-22T02:32:40.155Z,68.15
2019-03-22T02:35:09.246Z,68.48
2019-03-22T02:37:37.847Z,68.19
2019-03-22T02:40:08.274Z,68.15
2019-03-22T02:42:36.854Z,67.17
2019-03-22T02:45:08.048Z,67.17
2019-03-22T02:47:36.562Z,68.01
2019-03-22T02:50:18.067Z,74.41
2019-03-22T02:52:38.741Z,68.23
2019-03-22T02:55:08.410Z,67.38
2019-03-22T02:57:37.262Z,66.76
2019-03-22T03:00:09.205Z,66.90
2019-03-22T03:02:37.831Z,67.82
2019-03-22T03:05:08.414Z,68.54
2019-03-22T03:07:37.118Z,69.66
2019-03-22T03:10:13.608Z,69.52
2019-03-22T03:12:42.489Z,69.11
2019-03-22T03:15:18.912Z,68.95
2019-03-22T03:17:47.617Z,68.43
2019-03-22T03:20:18.279Z,68.24
2019-03-22T03:22:47.093Z,69.62
2019-03-22T03:25:16.401Z,72.37
2019-03-22T03:27:45.007Z,68.39
2019-03-22T03:30:16.626Z,67.25
2019-03-22T03:32:45.303Z,67.52
2019-03-22T03:35:14.232Z,67.73
2019-03-22T03:37:42.834Z,68.22
2019-03-22T03:40:12.817Z,68.79
2019-03-22T03:42:41.930Z,69.25
2019-03-22T03:45:30.045Z,69.28
2019-03-22T03:48:00.349Z,69.10
2019-03-22T03:50:28.870Z,68.57
2019-03-22T03:52:57.428Z,67.99
2019-03-22T03:55:26.306Z,67.34
2019-03-22T03:57:54.865Z,67.76
2019-03-22T04:00:23.489Z,74.43
2019-03-22T04:02:52.118Z,69.30
2019-03-22T04:05:20.706Z,68.16
2019-03-22T04:07:49.242Z,68.04
2019-03-22T04:10:17.704Z,67.70
2019-03-22T04:12:46.365Z,68.05
2019-03-22T04:15:15.000Z,68.72
2019-03-22T04:17:43.586Z,68.90
2019-03-22T04:20:12.140Z,68.17
2019-03-22T04:22:40.661Z,67.79
2019-03-22T04:25:09.853Z,67.51
2019-03-22T04:27:38.544Z,67.30
2019-03-22T04:30:08.068Z,67.40
2019-03-22T04:32:36.580Z,68.07
2019-03-22T04:35:08.451Z,70.38
2019-03-22T04:37:36.966Z,70.06
2019-03-22T04:40:28.501Z,68.06
2019-03-22T04:42:57.319Z,67.64
2019-03-22T04:45:28.736Z,67.53
2019-03-22T04:48:06.057Z,69.19
2019-03-22T04:50:37.857Z,69.78
2019-03-22T04:53:09.611Z,69.26
2019-03-22T04:55:40.097Z,69.03
2019-03-22T04:58:09.976Z,68.87
2019-03-22T05:00:39.156Z,68.65
2019-03-22T05:03:09.493Z,68.58
2019-03-22T05:05:38.955Z,68.10
2019-03-22T05:08:08.909Z,68.40
2019-03-22T05:10:38.400Z,71.43
2019-03-22T05:13:09.932Z,70.94
2019-03-22T05:15:39.248Z,69.09
2019-03-22T05:18:08.498Z,68.08
2019-03-22T05:20:38.198Z,68.45
2019-03-22T05:23:07.434Z,68.83
2019-03-22T05:25:37.323Z,69.59
2019-03-22T05:28:08.839Z,70.66
2019-03-22T05:30:58.498Z,70.68
2019-03-22T05:33:27.123Z,70.04
2019-03-22T05:35:55.670Z,69.42
2019-03-22T05:38:24.239Z,69.17
2019-03-22T05:40:52.843Z,68.81
2019-03-22T05:43:21.389Z,68.37
2019-03-22T05:45:50.121Z,71.85
2019-03-22T05:48:18.821Z,72.15
2019-03-22T05:50:47.759Z,69.15
2019-03-22T05:53:16.454Z,68.83
2019-03-22T05:55:44.972Z,68.36
2019-03-22T05:58:13.413Z,69.01
2019-03-22T06:00:42.055Z,69.64
2019-03-22T06:03:10.562Z,69.72
2019-03-22T06:05:39.392Z,69.20
2019-03-22T06:08:07.943Z,69.12
2019-03-22T06:10:36.522Z,68.69
2019-03-22T06:13:05.119Z,68.72
2019-03-22T06:15:33.759Z,68.43
2019-03-22T06:18:02.349Z,68.81
2019-03-22T06:20:31.309Z,69.82
2019-03-22T06:22:59.793Z,73.15
2019-03-22T06:25:28.488Z,69.07
2019-03-22T06:27:57.057Z,68.00
2019-03-22T06:30:25.648Z,67.74
2019-03-22T06:32:54.219Z,68.00
2019-03-22T06:35:25.085Z,68.81
2019-03-22T06:37:53.716Z,68.82
2019-03-22T06:40:22.294Z,68.87
2019-03-22T06:42:50.992Z,68.55
2019-03-22T06:45:19.511Z,68.31
2019-03-22T06:47:48.066Z,68.20
2019-03-22T06:50:16.678Z,67.19
2019-03-22T06:52:45.398Z,66.56
2019-03-22T06:55:14.001Z,66.51
2019-03-22T06:57:42.525Z,70.23
2019-03-22T07:00:12.611Z,66.97
2019-03-22T07:02:41.669Z,66.76
2019-03-22T07:05:10.393Z,67.08
2019-03-22T07:07:38.975Z,65.95
2019-03-22T07:10:08.324Z,64.84
2019-03-22T07:12:36.903Z,64.62
2019-03-22T07:15:06.493Z,65.52
2019-03-22T07:17:35.123Z,65.31
2019-03-22T07:20:04.856Z,65.63
2019-03-22T07:22:33.453Z,65.05
2019-03-22T07:25:01.998Z,63.69
2019-03-22T07:27:30.609Z,62.74
2019-03-22T07:29:59.643Z,62.32
2019-03-22T07:32:28.281Z,63.91
2019-03-22T07:34:56.922Z,62.19
2019-03-22T07:37:25.533Z,61.38
2019-03-22T07:39:54.158Z,62.47
2019-03-22T07:42:22.716Z,62.93
2019-03-22T07:44:51.304Z,63.16
2019-03-22T07:47:20.745Z,63.00
2019-03-22T07:49:49.301Z,63.26
2019-03-22T07:52:17.903Z,62.46
2019-03-22T07:54:46.403Z,60.58
2019-03-22T07:57:14.993Z,60.06
2019-03-22T07:59:43.602Z,61.03
2019-03-22T08:02:12.228Z,59.84
2019-03-22T08:04:40.824Z,59.75
2019-03-22T08:07:09.451Z,59.92
2019-03-22T08:09:38.024Z,60.49
2019-03-22T08:12:06.609Z,59.31
2019-03-22T08:14:35.221Z,57.50
2019-03-22T08:17:03.837Z,56.20
2019-03-22T08:19:32.441Z,56.86
2019-03-22T08:22:01.039Z,55.99
2019-03-22T08:24:29.661Z,56.11
2019-03-22T08:26:58.228Z,56.35
2019-03-22T08:29:26.872Z,56.37
2019-03-22T08:31:55.459Z,55.58
2019-03-22T08:34:24.089Z,55.33
2019-03-22T08:36:52.714Z,54.09
2019-03-22T08:39:21.414Z,55.51
2019-03-22T08:41:49.997Z,55.29
2019-03-22T08:44:18.552Z,54.41
2019-03-22T08:46:47.190Z,54.19
2019-03-22T08:49:15.880Z,53.60
2019-03-22T08:51:44.525Z,52.13
2019-03-22T08:54:13.134Z,52.18
2019-03-22T08:56:41.783Z,52.07
2019-03-22T08:59:13.375Z,51.76
2019-03-22T09:01:40.699Z,50.59
2019-03-22T09:04:09.230Z,49.48
2019-03-22T09:06:37.826Z,48.82
2019-03-22T09:09:07.569Z,48.30
2019-03-22T09:11:36.189Z,49.42
2019-03-22T09:14:04.821Z,46.06
2019-03-22T09:16:33.369Z,46.00
2019-03-22T09:19:02.035Z,46.68
2019-03-22T09:21:30.608Z,44.43
2019-03-22T09:23:59.251Z,44.99
2019-03-22T09:26:27.990Z,44.99
2019-03-22T09:28:56.498Z,44.30
2019-03-22T09:31:25.131Z,43.85
2019-03-22T09:33:53.849Z,43.46
2019-03-22T09:36:22.442Z,44.53
2019-03-22T09:38:50.992Z,43.93
2019-03-22T09:41:19.653Z,44.08
2019-03-22T09:43:48.173Z,44.25
2019-03-22T09:46:16.758Z,43.37
2019-03-22T09:48:45.398Z,43.55
2019-03-22T09:51:14.752Z,43.17
2019-03-22T09:53:43.263Z,42.77
2019-03-22T09:56:11.833Z,42.03
2019-03-22T09:58:40.258Z,42.83
2019-03-22T10:01:08.882Z,41.90
2019-03-22T10:03:37.431Z,41.32
2019-03-22T10:06:06.056Z,40.76
2019-03-22T10:08:34.560Z,41.57
2019-03-22T10:11:03.170Z,41.39
2019-03-22T10:13:31.718Z,40.10
2019-03-22T10:16:00.261Z,40.54
2019-03-22T10:18:28.938Z,38.22
2019-03-22T10:20:57.512Z,38.52
2019-03-22T10:23:26.129Z,38.09
2019-03-22T10:25:54.803Z,37.16
2019-03-22T10:28:23.354Z,37.11
2019-03-22T10:30:51.987Z,36.89
2019-03-22T10:33:23.039Z,36.36
2019-03-22T10:35:50.901Z,37.17
2019-03-22T10:38:30.790Z,36.73
2019-03-22T10:40:49.733Z,36.72
2019-03-22T10:43:18.344Z,34.90
2019-03-22T10:45:47.018Z,36.52
2019-03-22T10:48:15.596Z,35.39
2019-03-22T10:50:44.078Z,35.13
2019-03-22T10:53:12.734Z,34.31
2019-03-22T10:55:41.261Z,34.28
2019-03-22T10:58:20.182Z,33.40
2019-03-22T11:00:40.056Z,33.58
2019-03-22T11:03:08.667Z,33.69
2019-03-22T11:05:37.292Z,34.87
2019-03-22T11:08:05.916Z,34.70
2019-03-22T11:10:34.567Z,34.81
2019-03-22T11:13:03.215Z,33.61
2019-03-22T11:15:31.861Z,32.26
2019-03-22T11:18:00.427Z,32.27
2019-03-22T11:20:29.031Z,30.07
2019-03-22T11:22:57.557Z,30.16
2019-03-22T11:25:26.013Z,31.51
2019-03-22T11:27:54.687Z,29.64
2019-03-22T11:30:23.323Z,30.27
2019-03-22T11:32:51.927Z,31.09
2019-03-22T11:35:20.469Z,29.79
2019-03-22T11:37:49.122Z,29.64
2019-03-22T11:40:18.232Z,30.49
2019-03-22T11:42:46.823Z,31.00
2019-03-22T11:45:21.853Z,30.10
2019-03-22T11:47:50.524Z,29.28
2019-03-22T11:50:19.153Z,30.19
2019-03-22T11:52:47.776Z,29.74
2019-03-22T11:55:16.781Z,29.79
2019-03-22T11:57:45.366Z,29.41
2019-03-22T12:00:19.307Z,28.06
2019-03-22T12:02:47.896Z,28.12
2019-03-22T12:05:16.844Z,28.86
2019-03-22T12:07:45.569Z,30.17
2019-03-22T12:10:16.993Z,28.82
2019-03-22T12:12:45.597Z,28.79
2019-03-22T12:15:19.840Z,29.66
2019-03-22T12:17:48.571Z,29.38
2019-03-22T12:20:20.096Z,28.70
2019-03-22T12:22:49.028Z,28.62
2019-03-22T12:25:19.831Z,29.24
2019-03-22T12:27:48.562Z,28.23
2019-03-22T12:30:18.324Z,27.24
2019-03-22T12:32:46.911Z,27.93
2019-03-22T12:35:17.044Z,28.11
2019-03-22T12:37:45.969Z,27.97
2019-03-22T12:40:19.344Z,27.48
2019-03-22T12:42:47.940Z,28.40
2019-03-22T12:45:19.466Z,28.15
2019-03-22T12:47:48.076Z,28.78
2019-03-22T12:50:17.745Z,29.11
2019-03-22T12:52:46.393Z,28.76
2019-03-22T12:55:15.283Z,28.54
2019-03-22T12:57:43.890Z,28.86
2019-03-22T13:00:18.360Z,27.69
2019-03-22T13:02:46.998Z,28.42
2019-03-22T13:05:16.167Z,27.58
2019-03-22T13:07:44.746Z,28.54
2019-03-22T13:10:22.106Z,28.00
2019-03-22T13:12:50.774Z,27.99
2019-03-22T13:15:19.486Z,28.74
2019-03-22T13:17:48.131Z,28.91
2019-03-22T13:20:16.919Z,28.70
2019-03-22T13:22:46.504Z,28.27
2019-03-22T13:25:16.321Z,28.42
2019-03-22T13:27:44.916Z,28.77
2019-03-22T13:30:50.706Z,28.51
2019-03-22T13:33:19.596Z,28.35
2019-03-22T13:35:48.328Z,28.56
2019-03-22T13:38:16.943Z,28.97
2019-03-22T13:40:45.544Z,27.70
2019-03-22T13:43:14.099Z,27.80
2019-03-22T13:45:42.715Z,28.46
2019-03-22T13:48:11.337Z,28.89
2019-03-22T13:50:39.873Z,28.70
2019-03-22T13:53:08.490Z,29.44
2019-03-22T13:55:37.168Z,29.02
2019-03-22T13:58:05.799Z,27.87
2019-03-22T14:00:35.451Z,28.27
2019-03-22T14:03:04.245Z,28.03
2019-03-22T14:05:32.756Z,28.64
2019-03-22T14:08:01.362Z,28.37
2019-03-22T14:10:32.199Z,28.12
2019-03-22T14:13:02.552Z,28.18
2019-03-22T14:15:31.206Z,27.92
2019-03-22T14:17:59.936Z,28.05
2019-03-22T14:20:28.733Z,28.23
2019-03-22T14:22:57.593Z,28.29
2019-03-22T14:25:26.503Z,28.29
2019-03-22T14:27:55.083Z,28.07
2019-03-22T14:30:23.868Z,27.75
2019-03-22T14:32:52.584Z,27.34
2019-03-22T14:35:21.177Z,28.43
2019-03-22T14:37:49.809Z,28.62
2019-03-22T14:40:18.345Z,28.49
2019-03-22T14:42:46.972Z,29.25
2019-03-22T14:45:15.667Z,28.13
2019-03-22T14:47:44.248Z,27.44
2019-03-22T14:50:12.953Z,26.98
2019-03-22T14:52:41.656Z,27.27
2019-03-22T14:55:10.773Z,27.26
2019-03-22T14:57:48.336Z,28.23
2019-03-22T15:00:12.290Z,28.21
2019-03-22T15:02:40.981Z,27.05
2019-03-22T15:05:09.754Z,27.82
2019-03-22T15:07:38.753Z,27.45
2019-03-22T15:10:09.832Z,27.55
2019-03-22T15:12:38.577Z,27.87
2019-03-22T15:15:26.060Z,28.02
2019-03-22T15:18:13.750Z,27.87
2019-03-22T15:20:44.006Z,28.56
2019-03-22T15:23:30.251Z,28.30
2019-03-22T15:26:03.599Z,28.62
2019-03-22T15:28:33.880Z,29.57
2019-03-22T15:31:20.232Z,28.78
2019-03-22T15:34:04.663Z,29.18
2019-03-22T15:36:37.140Z,29.17
2019-03-22T15:39:21.810Z,29.18
2019-03-22T15:41:50.571Z,29.75
2019-03-22T15:44:19.273Z,28.96
2019-03-22T15:46:47.906Z,29.80
2019-03-22T15:49:16.835Z,29.39
2019-03-22T15:51:45.427Z,29.62
2019-03-22T15:54:14.045Z,29.63
2019-03-22T15:56:42.670Z,29.85
2019-03-22T15:59:11.546Z,29.71
2019-03-22T16:01:40.123Z,30.09
2019-03-22T16:04:09.143Z,29.03
2019-03-22T16:06:37.756Z,29.76
2019-03-22T16:09:08.358Z,29.54
2019-03-22T16:11:37.069Z,30.00
2019-03-22T16:14:05.947Z,30.94
2019-03-22T16:16:34.695Z,30.29
2019-03-22T16:19:03.261Z,30.88
2019-03-22T16:21:31.856Z,30.10
2019-03-22T16:24:00.453Z,30.30
2019-03-22T16:26:28.998Z,30.64
2019-03-22T16:28:57.585Z,30.50
2019-03-22T16:31:26.210Z,30.94
2019-03-22T16:33:55.117Z,30.82
2019-03-22T16:36:23.871Z,30.59
2019-03-22T16:38:52.459Z,30.61
2019-03-22T16:41:21.428Z,32.17
2019-03-22T16:43:50.053Z,32.03
2019-03-22T16:46:18.728Z,31.37
2019-03-22T16:48:47.356Z,31.86
2019-03-22T16:51:15.922Z,31.52
2019-03-22T16:53:44.439Z,31.44
2019-03-22T16:56:13.098Z,32.06
2019-03-22T16:58:41.729Z,32.77
2019-03-22T17:01:10.766Z,32.92
2019-03-22T17:03:39.418Z,32.45
2019-03-22T17:06:08.081Z,32.44
2019-03-22T17:08:36.711Z,33.65
2019-03-22T17:11:05.628Z,33.78
2019-03-22T17:13:34.269Z,32.55
2019-03-22T17:16:02.874Z,33.50
2019-03-22T17:18:31.758Z,33.69
2019-03-22T17:21:00.414Z,33.96
2019-03-22T17:23:29.153Z,34.36
2019-03-22T17:25:57.824Z,34.25
2019-03-22T17:28:26.496Z,33.70
2019-03-22T17:30:55.665Z,33.87
2019-03-22T17:33:24.299Z,35.70
2019-03-22T17:35:52.944Z,36.31
2019-03-22T17:38:21.541Z,37.27
2019-03-22T17:40:50.218Z,38.39
2019-03-22T17:43:18.835Z,38.40
2019-03-22T17:45:47.427Z,37.14
2019-03-22T17:48:16.386Z,38.70
2019-03-22T17:50:44.935Z,39.78
2019-03-22T17:53:13.655Z,39.07
2019-03-22T17:55:42.286Z,38.83
2019-03-22T17:58:10.900Z,39.53
2019-03-22T18:00:39.473Z,40.06
2019-03-22T18:03:08.101Z,41.17
2019-03-22T18:05:36.651Z,40.78
2019-03-22T18:08:05.250Z,44.58
2019-03-22T18:10:33.892Z,43.72
2019-03-22T18:13:02.485Z,45.48
2019-03-22T18:15:31.106Z,44.52
2019-03-22T18:17:59.549Z,46.28
2019-03-22T18:20:28.734Z,45.21
2019-03-22T18:22:57.382Z,46.48
2019-03-22T18:25:25.971Z,46.39
2019-03-22T18:27:54.604Z,45.90
2019-03-22T18:30:23.159Z,46.73
2019-03-22T18:32:51.763Z,46.98
2019-03-22T18:35:20.401Z,48.11
2019-03-22T18:37:48.920Z,50.04
2019-03-22T18:40:17.669Z,49.55
2019-03-22T18:42:46.295Z,50.00
2019-03-22T18:45:14.995Z,50.22
2019-03-22T18:47:43.651Z,49.81
2019-03-22T18:50:13.326Z,50.39
2019-03-22T18:52:42.103Z,50.49
2019-03-22T18:55:11.414Z,50.65
2019-03-22T18:57:40.033Z,49.66
2019-03-22T19:00:11.673Z,51.70
2019-03-22T19:02:40.310Z,51.45
2019-03-22T19:05:10.441Z,51.94
2019-03-22T19:07:39.327Z,50.74
2019-03-22T19:10:10.512Z,52.30
2019-03-22T19:12:39.100Z,52.67
2019-03-22T19:15:09.926Z,52.53
2019-03-22T19:17:38.647Z,52.81
2019-03-22T19:20:09.730Z,53.50
2019-03-22T19:22:38.466Z,54.13
2019-03-22T19:25:08.217Z,54.58
2019-03-22T19:27:36.793Z,54.73
2019-03-22T19:30:08.366Z,54.59
2019-03-22T19:32:36.895Z,54.95
2019-03-22T19:35:07.814Z,53.27
2019-03-22T19:37:36.677Z,53.12
2019-03-22T19:40:14.084Z,53.60
2019-03-22T19:42:42.677Z,54.46
2019-03-22T19:45:12.510Z,56.07
2019-03-22T19:47:41.114Z,56.39
2019-03-22T19:50:14.441Z,55.82
2019-03-22T19:52:43.133Z,55.56
2019-03-22T19:55:11.958Z,56.80
2019-03-22T19:57:40.655Z,56.38
2019-03-22T20:00:17.520Z,56.86
2019-03-22T20:02:46.156Z,55.82
2019-03-22T20:05:17.711Z,57.32
2019-03-22T20:07:46.216Z,55.96
2019-03-22T20:10:14.807Z,56.18
2019-03-22T20:12:43.440Z,55.76
2019-03-22T20:15:12.160Z,56.13
2019-03-22T20:17:40.756Z,55.10
2019-03-22T20:20:10.054Z,57.24
2019-03-22T20:22:38.641Z,56.80
2019-03-22T20:25:08.773Z,56.21
2019-03-22T20:27:37.462Z,57.28
2019-03-22T20:30:09.073Z,55.69
2019-03-22T20:32:37.645Z,56.93
2019-03-22T20:35:15.714Z,55.98
2019-03-22T20:37:37.926Z,56.33
2019-03-22T20:40:07.921Z,57.16
2019-03-22T20:42:36.547Z,57.73
2019-03-22T20:45:06.361Z,56.75
2019-03-22T20:47:35.362Z,57.52
2019-03-22T20:50:05.725Z,58.04
2019-03-22T20:52:34.246Z,57.35
2019-03-22T20:55:02.882Z,58.19
2019-03-22T20:57:31.402Z,55.20
2019-03-22T21:00:00.066Z,55.73
2019-03-22T21:02:28.645Z,56.05
2019-03-22T21:04:57.272Z,56.49
2019-03-22T21:07:25.857Z,56.89
2019-03-22T21:09:54.386Z,56.17
2019-03-22T21:12:23.253Z,55.98
2019-03-22T21:14:51.910Z,56.23
2019-03-22T21:17:20.515Z,56.09
2019-03-22T21:19:48.983Z,55.91
2019-03-22T21:22:17.593Z,56.68
2019-03-22T21:24:46.260Z,56.09
2019-03-22T21:27:16.021Z,56.71
2019-03-22T21:29:44.752Z,56.71
2019-03-22T21:32:13.338Z,58.50
2019-03-22T21:34:43.906Z,56.78
2019-03-22T21:37:12.279Z,57.51
2019-03-22T21:39:40.853Z,57.91
2019-03-22T21:42:09.400Z,57.69
2019-03-22T21:44:38.904Z,57.73
2019-03-22T21:47:07.624Z,56.75
2019-03-22T21:49:36.218Z,58.39
2019-03-22T21:52:04.842Z,59.15
2019-03-22T21:54:33.475Z,59.30
2019-03-22T21:57:02.088Z,58.54
2019-03-22T21:59:30.720Z,59.54
2019-03-22T22:01:59.642Z,58.81
2019-03-22T22:04:28.472Z,59.54
2019-03-22T22:06:57.105Z,58.97
2019-03-22T22:09:25.694Z,60.18
2019-03-22T22:11:54.394Z,60.89
2019-03-22T22:14:22.905Z,61.13
2019-03-22T22:16:51.551Z,59.66
2019-03-22T22:19:20.075Z,59.59
2019-03-22T22:21:48.744Z,59.30
2019-03-22T22:24:17.415Z,60.08
2019-03-22T22:26:46.064Z,60.00
2019-03-22T22:29:14.544Z,60.66
2019-03-22T22:31:43.082Z,60.64
2019-03-22T22:34:11.733Z,60.36
2019-03-22T22:36:40.362Z,62.09
2019-03-22T22:39:08.848Z,62.58
2019-03-22T22:41:37.365Z,62.76
2019-03-22T22:44:05.907Z,63.13
2019-03-22T22:46:34.514Z,64.38
2019-03-22T22:49:03.159Z,62.84
2019-03-22T22:51:31.816Z,63.01
2019-03-22T22:54:00.364Z,61.32
2019-03-22T22:56:29.004Z,60.22
2019-03-22T22:58:57.544Z,59.58
2019-03-22T23:01:26.191Z,60.18
2019-03-22T23:03:54.787Z,60.68
2019-03-22T23:06:23.434Z,60.43
2019-03-22T23:08:52.004Z,61.03
2019-03-22T23:11:20.559Z,58.77
2019-03-22T23:13:49.191Z,58.23
2019-03-22T23:16:17.874Z,58.03
2019-03-22T23:18:46.836Z,58.63
2019-03-22T23:21:15.206Z,57.13
2019-03-22T23:23:43.853Z,56.94
2019-03-22T23:26:12.556Z,56.32
2019-03-22T23:28:41.149Z,56.68
2019-03-22T23:31:09.723Z,55.81
2019-03-22T23:33:38.310Z,55.38
2019-03-22T23:36:07.220Z,55.86
2019-03-22T23:38:35.900Z,55.92
2019-03-22T23:41:04.611Z,55.84
2019-03-22T23:43:33.274Z,56.04
2019-03-22T23:46:01.832Z,56.06
2019-03-22T23:48:30.437Z,57.70
2019-03-22T23:50:59.052Z,58.93
2019-03-22T23:53:27.592Z,59.39
2019-03-22T23:55:56.221Z,59.15
2019-03-22T23:58:24.868Z,59.91
